AirNav   Bose Proflight Series 2 Wireless Aviation Headset
 
 910 users online  

FL14 John Hopkins All Childrens Hospital Heliport
St. Petersburg, Florida, USA

GOING TO ST. PETERSBURG?


FAA INFORMATION EFFECTIVE 07 NOVEMBER 2019

Location

FAA Identifier: FL14
Lat/Long: 27-45-54.0000N 082-38-26.0000W
27-45.900000N 082-38.433333W
27.7650000,-82.6405556
(estimated)
Elevation: 177 ft. / 54 m (estimated)
From city: 1 mile SW of ST. PETERSBURG, FL
Time zone: UTC -5 (UTC -4 during Daylight Saving Time)
Zip code: 33701

Heliport Operations

Heliport use: Private use. Permission required prior to landing
Activation date: 04/2015
Control tower: no
ARTCC: MIAMI CENTER
FSS: SAINT PETERSBURG FLIGHT SERVICE STATION
Attendance: CONTINUOUS
Wind indicator: lighted
Segmented circle: no

Heliport Communications

WX ASOS at SPG (0.7 nm E): 118.875 (727-821-4334)
WX ASOS at PIE (9 nm N): PHONE 727-531-3456
WX AWOS-3 at TPF (14 nm NE): 118.925 (813-251-6824)
WX ASOS at TPA (14 nm NE): PHONE 813-873-7228
WX AWOS-3P at CLW (14 nm NW): 119.225 (727-449-2184)

Nearby radio navigation aids

VOR radial/distance  VOR name  Freq  Var
PIEr170/8.9ST PETERSBURG VORTAC116.4005W
SRQr354/21.9SARASOTA VOR/DME117.0005W
LALr247/35.8LAKELAND VORTAC116.0001E

 
NDB name  Hdg/Dist  Freq  Var  ID
CAPOK171/14.236005WPI .--. ..

Heliport Services

Runway Information

Helipad H1

Dimensions: 54 x 54 ft. / 16 x 16 m
Surface: ROOF/TOP
Runway edge lights: PERI
Traffic pattern: leftleft

Heliport Ownership and Management from official FAA records

Ownership: Privately-owned
Owner: JOHN HOPKINS ALL CHILDRENS HOSPITAL
501 6TH AVE SOUTH
ST. PETERSBURG, FL 33701
Phone 727-767-4446
Manager: LARRY GREEN
501 6TH AVE SOUTH
ST. PETERSBURG, FL 33701
Phone 727-767-4446
ADDNL CTC: RICHARD GERGER 727-767-8899 RGERGER@JHMI.EDU

Additional Remarks

MEDICAL USE
HELIPAD STRENGTH MARKED AT 25,000 LBS BUT CAN ACCOMODATE UP TO 30,000 LBS
STANDARD HELIPAD MARKINGS - GOOD CONDITION
CHURCH SPIRE 250 FT NORTHEAST
FINAL APCH AND TKOF AREA 97.2 X 97.2 FT
FOR CD CTC TAMPA APCH AT 813-878-2528

Instrument Procedures

There are no published instrument procedures at FL14.

Some nearby airports with instrument procedures:

KSPG - Albert Whitted Airport (1 nm E)
KMCF - MacDill Air Force Base (8 nm NE)
KPIE - St Pete-Clearwater International Airport (9 nm N)
KTPF - Peter O Knight Airport (14 nm NE)
KTPA - Tampa International Airport (14 nm NE)
KCLW - Clearwater Air Park (14 nm NW)
 
Loc | Ops | Rwys | IFR | FBO | Links
Com | Nav | Svcs | Stats | Notes
Aerial photo
No photo
 
Airport distance calculator
Flying to John Hopkins All Childrens Hospital Heliport? Find the distance to fly.

From to FL14

Sunrise and sunset
Times for 19-Nov-2019
 Local
(UTC-5)
 Zulu
(UTC)
Morning civil twilight06:3111:31
Sunrise06:5611:56
Sunset17:3622:36
Evening civil twilight18:0123:01

Current date and time
Zulu (UTC)  20-Nov-2019 02:31:57
Local (UTC-5)  19-Nov-2019 21:31:57
 
METAR
KSPG 200153Z AUTO 00000KT 10SM CLR 18/12 A3003 RMK AO2 SLP170 T01780117
KMCF 
8nm NE 
200156Z AUTO 00000KT 10SM CLR 12/10 A3005 RMK AO2 SLP179 T01170104 FZRANO $
KPIE 
9nm N 
200153Z 14003KT 10SM CLR 13/11 A3005 RMK AO2 SLP175 T01330106
KTPA 
13nm NE 
200153Z 00000KT 10SM CLR 16/11 A3006 RMK AO2 SLP177 T01610106
KTPF 
14nm NE 
200215Z AUTO 00000KT 10SM CLR 15/13 A3006 RMK AO2
KCLW 
14nm NW 
200215Z AUTO 00000KT 10SM CLR 12/11 A3005 RMK AO2
TAF
KMCF 
8nm NE 
200100Z 2001/2107 VRB06KT 9999 SKC QNH3001INS BECMG 2016/2017 35009KT 9999 SKC QNH3016INS BECMG 2020/2021 VRB06KT 9999 SKC QNH3013INS TX23/2019Z TN12/2012Z
KPIE 
9nm N 
191720Z 1918/2018 32012KT P6SM SKC FM200100 VRB03KT P6SM SKC FM201500 36008KT P6SM SKC
KTPA 
13nm NE 
192100Z 1921/2024 32010KT P6SM SKC FM200100 VRB03KT P6SM SKC FM201500 35007KT P6SM FEW250 FM201800 32008KT P6SM SKC
NOTAMs
Click for the latest NOTAMs
NOTAMs are issued by the DoD/FAA and will open in a separate window not controlled by AirNav.

 

 
 

Would you like to see your business listed on this page?

 If your business provides an interesting product or service to pilots, flight crews, aircraft, or users of the John Hopkins All Childrens Hospital Heliport, you should consider listing it here.  To start the listing process, click on the button below
 
Add a business
 

Other Pages about John Hopkins All Childrens Hospital Heliport

Update a link
 
Copyright © AirNav, LLC. All rights reserved. Privacy Policy  Contact